createdAt,value
2018-10-01T00:00:08.361Z,11.64
2018-10-01T00:01:17.709Z,11.71
2018-10-01T00:02:27.336Z,11.68
2018-10-01T00:03:37.563Z,11.73
2018-10-01T00:04:47.693Z,11.68
2018-10-01T00:05:57.616Z,11.66
2018-10-01T00:07:07.233Z,11.61
2018-10-01T00:08:17.384Z,11.64
2018-10-01T00:09:27.530Z,11.64
2018-10-01T00:10:37.739Z,11.59
2018-10-01T00:11:47.876Z,11.63
2018-10-01T00:12:58.010Z,11.56
2018-10-01T00:14:07.896Z,11.64
2018-10-01T00:15:18.344Z,11.53
2018-10-01T00:16:28.493Z,11.51
2018-10-01T00:17:38.634Z,11.51
2018-10-01T00:18:48.773Z,11.57
2018-10-01T00:19:58.956Z,11.53
2018-10-01T00:21:09.099Z,11.52
2018-10-01T00:22:19.224Z,11.48
2018-10-01T00:23:29.071Z,11.45
2018-10-01T00:24:39.278Z,11.42
2018-10-01T00:25:49.210Z,11.43
2018-10-01T00:26:59.204Z,11.38
2018-10-01T00:28:09.089Z,11.35
2018-10-01T00:29:19.219Z,11.35
2018-10-01T00:30:29.343Z,11.41
2018-10-01T00:31:39.474Z,11.39
2018-10-01T00:32:49.343Z,11.38
2018-10-01T00:33:59.482Z,11.33
2018-10-01T00:35:09.627Z,11.38
2018-10-01T00:36:19.492Z,11.28
2018-10-01T00:37:29.556Z,11.26
2018-10-01T00:38:39.529Z,11.3
2018-10-01T00:39:49.446Z,11.23
2018-10-01T00:40:59.628Z,11.24
2018-10-01T00:42:09.783Z,11.31
2018-10-01T00:43:19.334Z,11.2
2018-10-01T00:44:29.705Z,11.23
2018-10-01T00:45:39.844Z,11.18
2018-10-01T00:46:49.472Z,11.21
2018-10-01T00:47:59.595Z,11.21
2018-10-01T00:49:09.740Z,11.18
2018-10-01T00:50:19.994Z,11.09
2018-10-01T00:51:30.136Z,11.21
2018-10-01T00:52:40.275Z,11.16
2018-10-01T00:53:50.401Z,11.16
2018-10-01T00:55:00.555Z,11.15
2018-10-01T00:56:10.731Z,11.13
2018-10-01T00:57:20.620Z,11.05
2018-10-01T00:58:30.493Z,11.05
2018-10-01T00:59:40.647Z,11.13
2018-10-01T01:00:50.501Z,11.06
2018-10-01T01:02:00.435Z,11.05
2018-10-01T01:03:10.572Z,11.03
2018-10-01T01:04:20.712Z,11.12
2018-10-01T01:05:30.593Z,11.05
2018-10-01T01:06:39.959Z,11.08
2018-10-01T01:07:50.243Z,11.02
2018-10-01T01:09:03.704Z,11.08
2018-10-01T01:10:13.580Z,11.1
2018-10-01T01:11:23.717Z,11.05
2018-10-01T01:12:33.859Z,11.08
2018-10-01T01:13:44.040Z,11.06
2018-10-01T01:14:53.879Z,11.05
2018-10-01T01:16:04.708Z,11.08
2018-10-01T01:17:14.582Z,10.94
2018-10-01T01:18:24.723Z,10.98
2018-10-01T01:19:34.897Z,10.97
2018-10-01T01:20:45.041Z,11.02
2018-10-01T01:21:54.919Z,11.05
2018-10-01T01:23:06.254Z,11.02
2018-10-01T01:24:16.442Z,10.92
2018-10-01T01:25:26.297Z,10.92
2018-10-01T01:26:36.439Z,10.98
2018-10-01T01:27:46.587Z,10.92
2018-10-01T01:28:56.515Z,10.95
2018-10-01T01:30:08.576Z,10.88
2018-10-01T01:31:18.762Z,10.9
2018-10-01T01:32:28.908Z,10.87
2018-10-01T01:33:39.054Z,10.9
2018-10-01T01:34:49.198Z,10.85
2018-10-01T01:35:59.335Z,10.85
2018-10-01T01:37:09.497Z,10.88
2018-10-01T01:38:19.374Z,10.76
2018-10-01T01:39:29.555Z,10.8
2018-10-01T01:40:39.422Z,10.76
2018-10-01T01:41:49.548Z,10.84
2018-10-01T01:42:59.728Z,10.79
2018-10-01T01:44:09.607Z,10.79
2018-10-01T01:45:19.495Z,10.73
2018-10-01T01:46:29.384Z,10.66
2018-10-01T01:47:39.520Z,10.59
2018-10-01T01:48:49.808Z,10.49
2018-10-01T01:49:59.937Z,10.46
2018-10-01T01:51:09.552Z,10.51
2018-10-01T01:52:19.424Z,10.51
2018-10-01T01:53:29.545Z,10.51
2018-10-01T01:54:39.750Z,10.52
2018-10-01T01:55:50.078Z,10.51
2018-10-01T01:57:02.249Z,10.54
2018-10-01T01:58:12.389Z,10.55
2018-10-01T01:59:22.520Z,10.57
2018-10-01T02:00:32.662Z,10.51
2018-10-01T02:01:42.537Z,10.46
2018-10-01T02:02:52.407Z,10.47
2018-10-01T02:04:02.204Z,10.41
2018-10-01T02:05:12.076Z,10.49
2018-10-01T02:06:22.378Z,10.44
2018-10-01T02:07:32.246Z,10.46
2018-10-01T02:08:42.381Z,10.46
2018-10-01T02:09:52.504Z,10.46
2018-10-01T02:11:02.396Z,10.44
2018-10-01T02:12:12.253Z,10.54
2018-10-01T02:13:22.382Z,10.47
2018-10-01T02:14:32.250Z,10.55
2018-10-01T02:15:42.373Z,10.52
2018-10-01T02:16:52.523Z,10.52
2018-10-01T02:18:02.811Z,10.47
2018-10-01T02:19:12.952Z,10.47
2018-10-01T02:20:23.090Z,10.44
2018-10-01T02:21:32.691Z,10.35
2018-10-01T02:22:42.829Z,10.36
2018-10-01T02:23:52.758Z,10.36
2018-10-01T02:25:02.900Z,10.38
2018-10-01T02:26:13.089Z,10.26
2018-10-01T02:27:23.206Z,10.28
2018-10-01T02:28:33.349Z,10.29
2018-10-01T02:29:43.239Z,10.29
2018-10-01T02:30:53.376Z,10.26
2018-10-01T02:32:03.524Z,10.23
2018-10-01T02:33:13.720Z,10.31
2018-10-01T02:34:23.862Z,10.21
2018-10-01T02:35:33.794Z,10.21
2018-10-01T02:36:43.935Z,10.26
2018-10-01T02:37:54.084Z,10.2
2018-10-01T02:39:03.674Z,10.25
2018-10-01T02:40:13.827Z,10.26
2018-10-01T02:41:23.975Z,10.18
2018-10-01T02:42:34.098Z,10.28
2018-10-01T02:43:44.252Z,10.23
2018-10-01T02:44:54.401Z,10.15
2018-10-01T02:46:05.831Z,10.21
2018-10-01T02:47:15.968Z,10.23
2018-10-01T02:48:25.851Z,10.23
2018-10-01T02:49:35.731Z,10.14
2018-10-01T02:50:45.618Z,10.23
2018-10-01T02:51:55.771Z,10.23
2018-10-01T02:53:06.310Z,10.14
2018-10-01T02:54:16.465Z,10.15
2018-10-01T02:55:26.850Z,10.15
2018-10-01T02:56:37.205Z,10.08
2018-10-01T02:57:47.325Z,10.08
2018-10-01T02:58:57.511Z,10.02
2018-10-01T03:00:08.424Z,10
2018-10-01T03:01:18.567Z,10.07
2018-10-01T03:02:28.214Z,9.98
2018-10-01T03:34:11.427Z,7.52
2018-10-01T03:35:21.544Z,7.41
2018-10-01T03:36:31.868Z,7.34
2018-10-01T03:37:41.909Z,7.34
2018-10-01T03:38:51.705Z,7.45
2018-10-01T03:40:01.938Z,7.49
2018-10-01T03:41:11.861Z,7.48
2018-10-01T03:42:21.921Z,7.54
2018-10-01T03:43:31.736Z,7.68
2018-10-01T03:44:41.820Z,7.75
2018-10-01T03:45:51.714Z,7.82
2018-10-01T03:47:02.774Z,7.91
2018-10-01T03:48:12.594Z,8.01
2018-10-01T03:49:22.415Z,8.11
2018-10-01T03:50:32.214Z,8.17
2018-10-01T03:51:42.294Z,8.35
2018-10-01T03:52:52.088Z,8.46
2018-10-01T03:54:02.152Z,8.44
2018-10-01T03:55:11.958Z,8.43
2018-10-01T03:56:21.761Z,8.54
2018-10-01T03:57:31.887Z,8.54
2018-10-01T03:58:41.944Z,8.65
2018-10-01T03:59:52.135Z,8.72
2018-10-01T04:01:02.276Z,8.74
2018-10-01T04:02:12.097Z,8.71
2018-10-01T04:03:21.776Z,8.82
2018-10-01T04:04:31.945Z,8.89
2018-10-01T04:05:42.010Z,8.85
2018-10-01T04:06:52.091Z,8.92
2018-10-01T04:08:03.112Z,8.97
2018-10-01T04:09:13.293Z,9.01
2018-10-01T04:10:23.385Z,9.05
2018-10-01T04:11:33.194Z,9.01
2018-10-01T04:12:42.770Z,9.09
2018-10-01T04:13:52.841Z,9.09
2018-10-01T04:15:02.807Z,9.08
2018-10-01T04:16:12.983Z,9.05
2018-10-01T04:17:23.316Z,9.05
2018-10-01T04:18:33.380Z,9.12
2018-10-01T04:19:43.211Z,9.05
2018-10-01T04:20:53.338Z,9.16
2018-10-01T04:22:03.428Z,9.17
2018-10-01T04:23:13.235Z,9.09
2018-10-01T04:24:23.378Z,9.05
2018-10-01T04:25:33.201Z,9.19
2018-10-01T04:26:43.510Z,9.12
2018-10-01T04:27:53.599Z,9.17
2018-10-01T04:29:03.665Z,9.11
2018-10-01T04:30:13.784Z,9.17
2018-10-01T04:31:23.839Z,9.12
2018-10-01T04:32:33.969Z,9.12
2018-10-01T04:33:43.793Z,9.16
2018-10-01T04:34:53.877Z,9.17
2018-10-01T04:36:05.690Z,9.16
2018-10-01T04:37:15.797Z,9.05
2018-10-01T04:38:25.928Z,9.14
2018-10-01T04:39:36.008Z,9.19
2018-10-01T04:40:46.346Z,9.11
2018-10-01T04:41:56.279Z,9.19
2018-10-01T04:43:06.354Z,9.17
2018-10-01T04:44:16.472Z,9.14
2018-10-01T04:45:26.393Z,9.17
2018-10-01T04:46:36.562Z,9.14
2018-10-01T04:47:46.734Z,9.16
2018-10-01T04:48:56.546Z,9.11
2018-10-01T04:50:06.623Z,9.12
2018-10-01T04:51:16.445Z,9.14
2018-10-01T04:52:26.523Z,9.12
2018-10-01T04:53:36.330Z,9.2
2018-10-01T04:54:45.907Z,9.17
2018-10-01T04:55:55.969Z,9.2
2018-10-01T04:57:06.087Z,9.27
2018-10-01T04:58:16.340Z,9.21
2018-10-01T04:59:26.739Z,9.2
2018-10-01T05:00:36.819Z,9.21
2018-10-01T05:01:46.937Z,9.24
2018-10-01T05:02:56.488Z,9.19
2018-10-01T05:04:06.557Z,9.12
2018-10-01T05:05:16.614Z,9.21
2018-10-01T05:06:26.687Z,9.2
2018-10-01T05:07:36.751Z,9.23
2018-10-01T05:08:46.831Z,9.23
2018-10-01T05:09:56.644Z,9.21
2018-10-01T05:11:08.719Z,9.21
2018-10-01T05:12:18.786Z,9.29
2018-10-01T05:13:28.913Z,9.26
2018-10-01T05:14:39.071Z,9.21
2018-10-01T05:15:49.268Z,9.23
2018-10-01T05:16:59.349Z,9.34
2018-10-01T05:18:09.447Z,9.38
2018-10-01T05:19:19.308Z,9.39
2018-10-01T05:20:28.858Z,9.42
2018-10-01T05:21:39.027Z,9.47
2018-10-01T05:22:49.118Z,9.59
2018-10-01T05:23:59.189Z,9.56
2018-10-01T05:25:09.503Z,9.57
2018-10-01T05:26:19.593Z,9.57
2018-10-01T05:27:29.462Z,9.52
2018-10-01T05:28:39.515Z,9.7
2018-10-01T05:29:49.325Z,9.7
2018-10-01T05:30:59.134Z,9.78
2018-10-01T05:32:09.439Z,9.78
2018-10-01T05:33:19.527Z,9.84
2018-10-01T05:34:29.343Z,9.85
2018-10-01T05:35:39.411Z,9.85
2018-10-01T05:36:49.484Z,9.99
2018-10-01T05:37:59.959Z,10.05
2018-10-01T05:39:10.688Z,10.13
2018-10-01T05:40:20.754Z,10.17
2018-10-01T05:41:30.521Z,10.18
2018-10-01T05:42:40.598Z,10.31
2018-10-01T05:43:50.686Z,10.42
2018-10-01T05:45:01.347Z,10.42
2018-10-01T05:46:11.145Z,10.49
2018-10-01T05:47:21.221Z,10.51
2018-10-01T05:48:31.311Z,10.61
2018-10-01T05:49:41.384Z,10.67
2018-10-01T05:50:51.485Z,10.83
2018-10-01T05:52:01.570Z,10.84
2018-10-01T05:53:11.652Z,10.87
2018-10-01T05:54:21.725Z,10.97
2018-10-01T05:55:31.817Z,11.06
2018-10-01T05:56:41.938Z,11.12
2018-10-01T05:57:52.302Z,11.2
2018-10-01T05:59:02.497Z,11.21
2018-10-01T06:00:12.698Z,11.24
2018-10-01T06:01:22.771Z,11.38
2018-10-01T06:02:32.593Z,11.39
2018-10-01T06:03:42.647Z,11.39
2018-10-01T06:04:53.113Z,11.49
2018-10-01T06:06:03.128Z,11.57
2018-10-01T06:07:12.953Z,11.51
2018-10-01T06:08:22.900Z,11.56
2018-10-01T06:09:32.725Z,11.63
2018-10-01T06:10:42.849Z,11.6
2018-10-01T06:11:53.154Z,11.67
2018-10-01T06:13:03.495Z,11.68
2018-10-01T06:14:13.580Z,11.66
2018-10-01T06:15:23.459Z,11.81
2018-10-01T06:16:33.254Z,11.79
2018-10-01T06:17:43.359Z,11.85
2018-10-01T06:18:53.420Z,11.85
2018-10-01T06:20:03.213Z,11.78
2018-10-01T06:21:13.285Z,11.88
2018-10-01T06:22:23.391Z,11.85
2018-10-01T06:23:33.475Z,11.89
2018-10-01T06:24:43.030Z,11.94
2018-10-01T06:25:52.840Z,11.91
2018-10-01T06:27:03.871Z,11.98
2018-10-01T06:28:13.687Z,12.05
2018-10-01T06:29:23.500Z,12.03
2018-10-01T06:30:33.644Z,12
2018-10-01T06:31:43.719Z,12.04
2018-10-01T06:32:53.915Z,12.01
2018-10-01T06:34:04.919Z,12.05
2018-10-01T06:35:14.474Z,12.1
2018-10-01T06:36:24.802Z,12.16
2018-10-01T06:37:34.284Z,12.15
2018-10-01T06:38:43.305Z,12.19
2018-10-01T06:39:53.132Z,12.19
2018-10-01T06:41:03.527Z,12.23
2018-10-01T06:42:13.627Z,12.22
2018-10-01T06:43:23.667Z,12.2
2018-10-01T06:44:33.486Z,12.23
2018-10-01T06:45:43.580Z,12.31
2018-10-01T06:46:53.158Z,12.34
2018-10-01T06:48:03.420Z,12.4
2018-10-01T06:49:13.472Z,12.43
2018-10-01T06:50:23.536Z,12.43
2018-10-01T06:51:33.069Z,12.43
2018-10-01T06:52:43.176Z,12.56
2018-10-01T06:53:52.469Z,12.59
2018-10-01T06:55:02.326Z,12.71
2018-10-01T06:56:12.158Z,12.77
2018-10-01T06:57:21.978Z,12.8
2018-10-01T06:58:31.800Z,12.83
2018-10-01T06:59:41.987Z,12.98
2018-10-01T07:00:52.362Z,13.1
2018-10-01T07:02:02.193Z,13.17
2018-10-01T07:03:12.270Z,13.25
2018-10-01T07:04:22.344Z,13.36
2018-10-01T07:05:32.688Z,13.5
2018-10-01T07:06:42.775Z,13.68
2018-10-01T07:07:53.013Z,13.58
2018-10-01T07:09:07.046Z,13.72
2018-10-01T07:10:17.360Z,13.76
2018-10-01T07:11:27.433Z,13.84
2018-10-01T07:12:37.516Z,13.84
2018-10-01T07:13:47.342Z,13.94
2018-10-01T07:14:57.418Z,14.02
2018-10-01T07:16:07.507Z,14.24
2018-10-01T07:17:17.896Z,14.27
2018-10-01T07:18:28.857Z,14.48
2018-10-01T07:19:38.950Z,14.7
2018-10-01T07:20:49.032Z,14.77
2018-10-01T07:21:58.873Z,14.95
2018-10-01T07:23:10.032Z,15.02
2018-10-01T07:24:20.422Z,15.2
2018-10-01T07:25:30.527Z,15.3
2018-10-01T07:26:40.380Z,15.43
2018-10-01T07:27:50.479Z,15.55
2018-10-01T07:29:00.565Z,15.62
2018-10-01T07:30:10.636Z,15.68
2018-10-01T07:31:20.712Z,15.77
2018-10-01T07:32:30.796Z,15.84
2018-10-01T07:33:40.910Z,15.88
2018-10-01T07:34:51.032Z,15.98
2018-10-01T07:36:01.149Z,15.95
2018-10-01T07:37:10.975Z,15.96
2018-10-01T07:38:21.053Z,15.96
2018-10-01T07:39:30.886Z,16.02
2018-10-01T07:40:40.967Z,16.08
2018-10-01T07:41:51.090Z,16.1
2018-10-01T07:43:01.186Z,16.26
2018-10-01T07:44:11.266Z,16.29
2018-10-01T07:45:21.721Z,16.32
2018-10-01T07:46:32.293Z,16.32
2018-10-01T07:47:42.106Z,16.32
2018-10-01T07:48:52.187Z,16.4
2018-10-01T07:50:02.123Z,16.42
2018-10-01T07:51:12.957Z,16.34
2018-10-01T07:52:23.215Z,16.42
2018-10-01T07:53:33.614Z,16.39
2018-10-01T07:54:44.011Z,16.52
2018-10-01T07:55:54.149Z,16.33
2018-10-01T07:57:04.439Z,16.47
2018-10-01T07:58:14.677Z,16.36
2018-10-01T07:59:24.866Z,16.44
2018-10-01T08:00:35.306Z,16.49
2018-10-01T08:01:45.147Z,16.4
2018-10-01T08:02:55.226Z,16.4
2018-10-01T08:04:05.318Z,16.51
2018-10-01T08:05:15.118Z,16.37
2018-10-01T08:06:25.416Z,16.47
2018-10-01T08:07:35.519Z,16.33
2018-10-01T08:08:45.983Z,16.36
2018-10-01T08:09:55.831Z,16.4
2018-10-01T08:11:05.993Z,16.42
2018-10-01T08:12:15.817Z,16.36
2018-10-01T08:13:25.870Z,16.36
2018-10-01T08:14:36.303Z,16.36
2018-10-01T08:15:46.798Z,16.39
2018-10-01T08:16:57.056Z,16.29
2018-10-01T08:18:07.161Z,16.34
2018-10-01T08:19:16.979Z,16.21
2018-10-01T08:20:26.896Z,16.21
2018-10-01T08:21:37.121Z,16.16
2018-10-01T08:22:47.253Z,16.07
2018-10-01T08:23:57.336Z,15.92
2018-10-01T08:25:07.472Z,15.92
2018-10-01T08:26:17.819Z,15.93
2018-10-01T08:27:27.762Z,15.86
2018-10-01T08:28:37.597Z,15.93
2018-10-01T08:29:48.193Z,15.99
2018-10-01T08:30:58.432Z,16
2018-10-01T08:32:10.250Z,16.13
2018-10-01T08:33:20.608Z,16.07
2018-10-01T08:34:30.784Z,16.26
2018-10-01T08:35:41.044Z,16.39
2018-10-01T08:36:50.858Z,16.33
2018-10-01T08:38:03.640Z,16.32
2018-10-01T08:39:14.208Z,16.27
2018-10-01T08:40:24.296Z,16.13
2018-10-01T08:41:34.563Z,16.06
2018-10-01T08:42:44.790Z,15.95
2018-10-01T08:43:54.680Z,15.95
2018-10-01T08:45:04.890Z,15.93
2018-10-01T08:46:14.982Z,16.18
2018-10-01T08:47:25.600Z,16.48
2018-10-01T08:48:35.904Z,16.47
2018-10-01T08:49:45.452Z,16.63
2018-10-01T08:50:55.627Z,16.81
2018-10-01T08:52:05.700Z,16.84
2018-10-01T08:53:16.975Z,17.03
2018-10-01T08:54:26.963Z,17.17
2018-10-01T08:55:37.303Z,17.1
2018-10-01T08:56:46.921Z,17.2
2018-10-01T08:57:56.459Z,17.32
2018-10-01T08:59:08.537Z,17.39
2018-10-01T09:00:18.943Z,17.45
2018-10-01T09:01:29.040Z,17.52
2018-10-01T09:02:39.032Z,17.58
2018-10-01T09:03:48.883Z,17.55
2018-10-01T09:04:58.723Z,17.66
2018-10-01T09:06:08.947Z,17.81
2018-10-01T09:07:18.801Z,17.77
2018-10-01T09:08:29.068Z,17.9
2018-10-01T09:09:39.510Z,18.05
2018-10-01T09:10:49.589Z,18.17
2018-10-01T09:11:59.699Z,18.45
2018-10-01T09:13:09.817Z,18.74
2018-10-01T09:14:20.256Z,18.81
2018-10-01T09:15:29.933Z,18.96
2018-10-01T09:16:40.018Z,19.06
2018-10-01T09:17:49.573Z,19.25
2018-10-01T09:18:59.388Z,19.24
2018-10-01T09:20:09.689Z,19.42
2018-10-01T09:21:20.203Z,19.6
2018-10-01T09:22:30.062Z,19.68
2018-10-01T09:23:40.384Z,19.92
2018-10-01T09:24:50.194Z,19.97
2018-10-01T09:26:00.086Z,20.02
2018-10-01T09:27:10.354Z,20.05
2018-10-01T09:28:20.426Z,20.01
2018-10-01T09:29:30.523Z,19.93
2018-10-01T09:30:40.978Z,19.79
2018-10-01T09:31:51.050Z,19.78
2018-10-01T09:33:01.178Z,19.64
2018-10-01T09:34:11.359Z,19.53
2018-10-01T09:35:21.680Z,19.52
2018-10-01T09:36:31.968Z,19.61
2018-10-01T09:37:42.047Z,19.49
2018-10-01T09:38:51.865Z,19.35
2018-10-01T09:40:02.083Z,19.4
2018-10-01T09:41:12.431Z,19.3
2018-10-01T09:42:22.518Z,19.37
2018-10-01T09:43:32.581Z,19.24
2018-10-01T09:44:42.958Z,19.16
2018-10-01T09:45:53.045Z,19.15
2018-10-01T09:47:03.200Z,19.12
2018-10-01T09:48:13.456Z,19.1
2018-10-01T09:49:23.055Z,19.17
2018-10-01T09:50:33.311Z,19.27
2018-10-01T09:51:43.639Z,19.25
2018-10-01T09:52:53.756Z,19.3
2018-10-01T09:54:03.866Z,19.42
2018-10-01T09:55:14.005Z,19.38
2018-10-01T09:56:24.217Z,19.42
2018-10-01T09:57:34.164Z,19.55
2018-10-01T09:58:44.183Z,19.53
2018-10-01T09:59:54.246Z,19.61
2018-10-01T10:01:04.069Z,19.6
2018-10-01T10:02:14.564Z,19.61
2018-10-01T10:03:24.503Z,19.42
2018-10-01T10:04:34.948Z,19.45
2018-10-01T10:05:45.409Z,19.61
2018-10-01T10:06:55.547Z,19.79
2018-10-01T10:08:08.288Z,19.85
2018-10-01T10:09:18.737Z,19.89
2018-10-01T10:10:28.747Z,19.85
2018-10-01T10:11:38.573Z,19.87
2018-10-01T10:12:48.456Z,19.98
2018-10-01T10:13:58.374Z,20.01
2018-10-01T10:15:08.579Z,20.04
2018-10-01T10:16:19.005Z,20.05
2018-10-01T10:17:29.965Z,20.16
2018-10-01T10:18:39.844Z,20.27
2018-10-01T10:19:49.665Z,20.4
2018-10-01T10:20:59.540Z,20.46
2018-10-01T10:22:09.933Z,20.57
2018-10-01T10:23:20.333Z,20.61
2018-10-01T10:24:30.406Z,20.46
2018-10-01T10:25:40.248Z,20.37
2018-10-01T10:26:50.340Z,20.29
2018-10-01T10:27:59.950Z,20.12
2018-10-01T10:29:09.606Z,20
2018-10-01T10:30:19.687Z,20.07
2018-10-01T10:31:29.766Z,20.01
2018-10-01T10:32:40.109Z,20.12
2018-10-01T10:33:50.026Z,20.2
2018-10-01T10:34:59.865Z,20.27
2018-10-01T10:36:09.950Z,20.48
2018-10-01T10:37:20.030Z,20.29
2018-10-01T10:38:30.250Z,20.25
2018-10-01T10:39:40.807Z,20.23
2018-10-01T10:40:50.975Z,20.08
2018-10-01T10:42:00.958Z,19.82
2018-10-01T10:43:10.781Z,19.83
2018-10-01T10:44:21.342Z,19.82
2018-10-01T10:45:31.761Z,20.01
2018-10-01T10:46:41.852Z,20.07
2018-10-01T10:47:51.945Z,20.15
2018-10-01T10:49:02.063Z,20.25
2018-10-01T10:50:12.385Z,20.35
2018-10-01T10:51:22.632Z,20.38
2018-10-01T10:52:32.725Z,20.41
2018-10-01T10:53:42.921Z,20.44
2018-10-01T10:54:53.012Z,20.48
2018-10-01T10:56:02.917Z,20.54
2018-10-01T10:57:12.913Z,20.53
2018-10-01T10:58:22.721Z,20.48
2018-10-01T10:59:32.811Z,20.25
2018-10-01T11:00:42.912Z,20.1
2018-10-01T11:01:52.721Z,20.12
2018-10-01T11:03:02.911Z,20.16
2018-10-01T11:04:12.991Z,20.19
2018-10-01T11:05:22.855Z,20.26
2018-10-01T11:06:32.920Z,20.26
2018-10-01T11:07:42.772Z,20.42
2018-10-01T11:08:52.868Z,20.34
2018-10-01T11:10:02.946Z,20.42
2018-10-01T11:11:13.142Z,20.44
2018-10-01T11:12:22.694Z,20.56
2018-10-01T11:13:32.791Z,20.61
2018-10-01T11:14:43.500Z,20.66
2018-10-01T11:15:54.260Z,20.86
2018-10-01T11:17:04.419Z,20.85
2018-10-01T11:18:14.759Z,20.82
2018-10-01T11:19:25.808Z,20.9
2018-10-01T11:20:35.597Z,20.9
2018-10-01T11:21:46.634Z,20.94
2018-10-01T11:22:56.975Z,20.94
2018-10-01T11:24:06.893Z,20.94
2018-10-01T11:25:16.860Z,20.91
2018-10-01T11:26:26.889Z,20.96
2018-10-01T11:27:36.911Z,20.94
2018-10-01T11:28:47.083Z,20.94
2018-10-01T11:29:57.013Z,20.9
2018-10-01T11:31:08.610Z,20.98
2018-10-01T11:32:18.926Z,20.9
2018-10-01T11:33:29.173Z,20.97
2018-10-01T11:34:39.523Z,20.94
2018-10-01T11:35:49.765Z,20.93
2018-10-01T11:36:59.848Z,20.98
2018-10-01T11:38:09.958Z,21.03
2018-10-01T11:39:20.624Z,21.08
2018-10-01T11:40:30.790Z,21.18
2018-10-01T11:41:40.351Z,21.15
2018-10-01T11:42:50.427Z,21.22
2018-10-01T11:44:01.342Z,21.25
2018-10-01T11:45:11.742Z,21.33
2018-10-01T11:46:22.012Z,21.3
2018-10-01T11:47:31.830Z,21.41
2018-10-01T11:48:41.929Z,21.41
2018-10-01T11:49:52.055Z,21.48
2018-10-01T11:51:02.413Z,21.56
2018-10-01T11:52:12.593Z,21.55
2018-10-01T11:53:22.396Z,21.58
2018-10-01T11:54:32.433Z,21.55
2018-10-01T11:55:42.009Z,21.64
2018-10-01T11:56:52.250Z,21.59
2018-10-01T11:58:02.378Z,21.59
2018-10-01T11:59:12.468Z,21.59
2018-10-01T12:00:22.565Z,21.74
2018-10-01T12:01:32.662Z,21.74
2018-10-01T12:02:42.475Z,21.74
2018-10-01T12:03:52.993Z,21.78
2018-10-01T12:05:03.975Z,21.8
2018-10-01T12:06:14.058Z,21.68
2018-10-01T12:07:24.132Z,21.76
2018-10-01T12:08:34.223Z,21.71
2018-10-01T12:09:44.974Z,21.85
2018-10-01T12:10:55.560Z,21.85
2018-10-01T12:12:06.125Z,21.9
2018-10-01T12:13:15.705Z,21.9
2018-10-01T12:14:25.784Z,21.86
2018-10-01T12:15:36.205Z,21.83
2018-10-01T12:16:46.674Z,21.93
2018-10-01T12:17:56.502Z,21.96
2018-10-01T12:19:06.630Z,22.08
2018-10-01T12:20:16.520Z,22.11
2018-10-01T12:21:26.501Z,22.2
2018-10-01T12:22:36.107Z,22.18
2018-10-01T12:23:46.194Z,22.22
2018-10-01T12:24:56.277Z,22.23
2018-10-01T12:26:05.837Z,22.24
2018-10-01T12:27:16.331Z,22.23
2018-10-01T12:28:26.656Z,22.3
2018-10-01T12:29:36.749Z,22.38
2018-10-01T12:30:46.610Z,22.45
2018-10-01T12:31:56.695Z,22.44
2018-10-01T12:33:07.607Z,22.57
2018-10-01T12:34:17.705Z,22.54
2018-10-01T12:35:27.827Z,22.33
2018-10-01T12:36:37.942Z,22.29
2018-10-01T12:37:48.009Z,21.89
2018-10-01T12:38:58.278Z,21.68
2018-10-01T12:40:10.860Z,21.53
2018-10-01T12:41:20.669Z,21.43
2018-10-01T12:42:30.742Z,21.28
2018-10-01T12:43:40.860Z,21.38
2018-10-01T12:44:50.702Z,21.52
2018-10-01T12:46:03.569Z,21.58
2018-10-01T12:47:13.645Z,21.49
2018-10-01T12:48:23.456Z,21.4
2018-10-01T12:49:33.557Z,21.22
2018-10-01T12:50:43.804Z,21.19
2018-10-01T12:51:54.053Z,21.15
2018-10-01T12:53:04.838Z,21.09
2018-10-01T12:54:14.916Z,21.01
2018-10-01T12:55:24.996Z,21.01
2018-10-01T12:56:34.862Z,20.91
2018-10-01T12:57:44.568Z,20.94
2018-10-01T12:58:54.967Z,20.98
2018-10-01T13:00:08.281Z,20.94
2018-10-01T13:01:18.621Z,20.9
2018-10-01T13:02:28.725Z,20.82
2018-10-01T13:03:38.818Z,20.82
2018-10-01T13:04:48.936Z,20.79
2018-10-01T13:05:59.092Z,20.79
2018-10-01T13:07:09.306Z,20.75
2018-10-01T13:08:19.679Z,20.68
2018-10-01T13:09:29.541Z,20.68
2018-10-01T13:10:39.643Z,20.71
2018-10-01T13:11:49.745Z,20.68
2018-10-01T13:12:59.648Z,20.63
2018-10-01T13:14:09.230Z,20.76
2018-10-01T13:15:19.355Z,20.83
2018-10-01T13:16:29.463Z,20.94
2018-10-01T13:17:39.579Z,21.18
2018-10-01T13:18:51.183Z,21.36
2018-10-01T13:20:01.027Z,21.48
2018-10-01T13:21:11.142Z,21.59
2018-10-01T13:22:21.243Z,21.68
2018-10-01T13:23:31.378Z,21.7
2018-10-01T13:24:40.964Z,21.7
2018-10-01T13:25:51.384Z,21.7
2018-10-01T13:27:02.688Z,21.68
2018-10-01T13:28:12.808Z,21.61
2018-10-01T13:29:23.042Z,21.55
2018-10-01T13:30:33.318Z,21.55
2018-10-01T13:31:43.654Z,21.55
2018-10-01T13:32:54.033Z,21.52
2018-10-01T13:34:04.126Z,21.38
2018-10-01T13:35:15.341Z,21.31
2018-10-01T13:36:26.169Z,21.19
2018-10-01T13:37:36.404Z,21.21
2018-10-01T13:38:46.040Z,21.11
2018-10-01T13:39:56.148Z,21.03
2018-10-01T13:41:07.690Z,21.08
2018-10-01T13:42:18.194Z,21.09
2018-10-01T13:43:28.300Z,21.08
2018-10-01T13:44:38.997Z,20.98
2018-10-01T13:45:49.155Z,20.93
2018-10-01T13:46:59.289Z,20.88
2018-10-01T13:48:09.573Z,20.72
2018-10-01T13:49:20.075Z,20.48
2018-10-01T13:50:30.367Z,20.46
2018-10-01T13:51:40.720Z,20.41
2018-10-01T13:52:51.473Z,20.3
2018-10-01T13:54:01.692Z,20.26
2018-10-01T13:55:11.731Z,20.1
2018-10-01T13:56:21.832Z,20.11
2018-10-01T13:57:31.945Z,20.01
2018-10-01T13:58:42.051Z,19.83
2018-10-01T13:59:52.279Z,19.65
2018-10-01T14:01:02.176Z,19.67
2018-10-01T14:02:12.630Z,19.45
2018-10-01T14:03:22.728Z,19.38
2018-10-01T14:04:32.816Z,19.25
2018-10-01T14:05:43.007Z,19.13
2018-10-01T14:06:53.232Z,19.06
2018-10-01T14:08:02.804Z,19
2018-10-01T14:09:13.621Z,18.86
2018-10-01T14:10:23.800Z,18.78
2018-10-01T14:11:33.913Z,18.63
2018-10-01T14:12:43.791Z,18.49
2018-10-01T14:13:54.313Z,18.44
2018-10-01T14:15:05.191Z,18.24
2018-10-01T14:16:15.025Z,18.17
2018-10-01T14:17:25.423Z,18.14
2018-10-01T14:18:35.550Z,18.08
2018-10-01T14:19:45.885Z,18.03
2018-10-01T14:20:56.433Z,17.95
2018-10-01T14:22:06.276Z,17.95
2018-10-01T14:23:16.401Z,17.92
2018-10-01T14:24:26.516Z,17.88
2018-10-01T14:25:37.500Z,17.81
2018-10-01T14:26:48.268Z,17.79
2018-10-01T14:27:58.399Z,17.66
2018-10-01T14:29:08.427Z,17.73
2018-10-01T14:30:18.693Z,17.63
2018-10-01T14:31:29.041Z,17.5
2018-10-01T14:32:39.235Z,17.52
2018-10-01T14:33:49.345Z,17.5
2018-10-01T14:34:59.464Z,17.4
2018-10-01T14:36:09.205Z,17.42
2018-10-01T14:37:19.637Z,17.42
2018-10-01T14:38:29.449Z,17.36
2018-10-01T14:39:39.587Z,17.35
2018-10-01T14:40:49.708Z,17.36
2018-10-01T14:41:59.896Z,17.38
2018-10-01T14:43:10.411Z,17.42
2018-10-01T14:44:20.575Z,17.36
2018-10-01T14:45:30.430Z,17.39
2018-10-01T14:46:40.544Z,17.35
2018-10-01T14:47:50.899Z,17.31
2018-10-01T14:49:03.436Z,17.36
2018-10-01T14:50:13.589Z,17.27
2018-10-01T14:51:24.020Z,17.24
2018-10-01T14:52:34.088Z,17.09
2018-10-01T14:53:44.231Z,17.03
2018-10-01T14:54:54.061Z,17.06
2018-10-01T14:56:04.157Z,17.05
2018-10-01T14:57:14.303Z,16.87
2018-10-01T14:58:24.444Z,16.87
2018-10-01T14:59:34.050Z,16.81
2018-10-01T15:00:44.416Z,16.72
2018-10-01T15:01:54.663Z,16.65
2018-10-01T15:03:04.490Z,16.65
2018-10-01T15:04:14.308Z,16.7
2018-10-01T15:05:24.434Z,16.73
2018-10-01T15:06:34.961Z,16.55
2018-10-01T15:07:45.063Z,16.63
2018-10-01T15:08:55.168Z,16.58
2018-10-01T15:10:08.235Z,16.54
2018-10-01T15:11:18.385Z,16.47
2018-10-01T15:12:28.600Z,16.45
2018-10-01T15:13:38.532Z,16.44
2018-10-01T15:14:48.381Z,16.39
2018-10-01T15:15:58.204Z,16.36
2018-10-01T15:17:08.344Z,16.45
2018-10-01T15:18:19.088Z,16.32
2018-10-01T15:19:29.334Z,16.27
2018-10-01T15:20:39.433Z,16.18
2018-10-01T15:21:49.069Z,16.11
2018-10-01T15:22:58.972Z,16.1
2018-10-01T15:24:09.356Z,15.98
2018-10-01T15:25:19.703Z,16.06
2018-10-01T15:26:29.825Z,15.93
2018-10-01T15:27:39.889Z,15.95
2018-10-01T15:28:49.774Z,15.96
2018-10-01T15:30:00.044Z,15.89
2018-10-01T15:31:10.236Z,15.89
2018-10-01T15:32:20.320Z,15.86
2018-10-01T15:33:30.520Z,15.8
2018-10-01T15:34:40.125Z,15.86
2018-10-01T15:35:49.975Z,15.73
2018-10-01T15:37:00.115Z,15.83
2018-10-01T15:38:10.270Z,15.75
2018-10-01T15:39:20.360Z,15.7
2018-10-01T15:40:30.597Z,15.75